1999 E39899:HSK3099 (1999071S15087)


On this page: IBTrACS data - Map and Plots - Positions - Intensities - Original source data

Summary

Start Mar 11
End Mar 21
Basin SI
LMI 40 kt
Sources jtwc_sh
reunion
neumann
In WMO? Yes
Previous storm 1999 HALI (SP)
Previous in basin 1999 HSK2799 (SI)
Concurrent storms 1999 DAVINA (SI)
1999 HALI (SP)
1999 E39899 (SI)
1999 ELAINE (SI)
1999 VANCE (SI)
1999 HSK3299 (SI)
Next in basin 1999 ELAINE (SI)
Next storm 1999 ELAINE (SI)

top of page IBTrACS Data: File Access

top of page HURSAT Data: File Access

Image of storm

top of page Plots:

Map of storm track will not appear if FTP is down
Time series of cyclone Maximum Sustained Wind will not appear if FTP is down
Time series of cyclone Minimum Central Pressure will not appear if FTP is down

top of page Track Data:Position

jtwc_sh reunion neumann
Date Lat Lon Lat Lon Lat Lon
1999-03-11 18:00:00 -14.7 86.9 -14.7 86.9
1999-03-12 00:00:00 -14.5 85.8 -14.5 85.8
1999-03-12 06:00:00 -14.4 85.0 -14.4 85.0
1999-03-12 12:00:00 -13.9 84.1 -13.9 84.1
1999-03-12 18:00:00 -13.4 83.1 -13.4 83.1
1999-03-13 00:00:00 -12.9 82.1 -12.9 82.1
1999-03-13 06:00:00 -12.7 81.1 -12.7 81.1
1999-03-13 12:00:00 -12.6 79.8 -12.6 79.8
1999-03-13 18:00:00 -12.7 78.9 -12.7 78.9
1999-03-14 00:00:00 -12.7 78.1 -12.7 78.1
1999-03-14 06:00:00 -12.5 77.5 -12.5 77.5
1999-03-14 12:00:00 -12.3 77.0 -12.3 77.0
1999-03-14 18:00:00 -12.0 76.6 -12.0 76.6
1999-03-15 00:00:00 -12.0 76.4 -12.0 76.4
1999-03-15 06:00:00 -12.2 75.9 -12.2 75.9
1999-03-15 12:00:00 -12.4 75.2 -12.4 75.4 -12.4 75.4
1999-03-15 18:00:00 -12.5 74.8 -12.5 75.0 -12.5 75.0
1999-03-16 00:00:00 -12.7 74.5 -12.7 74.6 -12.7 74.6
1999-03-16 06:00:00 -12.8 74.3 -13.0 74.3 -13.0 74.3
1999-03-16 12:00:00 -13.0 74.1 -13.3 74.2 -13.3 74.2
1999-03-16 18:00:00 -13.2 73.9 -13.4 74.0 -13.4 74.0
1999-03-17 00:00:00 -13.4 73.8 -13.6 73.9 -13.6 73.9
1999-03-17 06:00:00 -13.6 73.6 -13.6 73.8 -13.6 73.8
1999-03-17 12:00:00 -13.9 73.1 -13.7 73.6 -13.7 73.6
1999-03-17 18:00:00 -14.2 73.0 -13.8 73.3 -13.8 73.3
jtwc_sh reunion neumann
1999-03-18 00:00:00 -14.4 73.1 -14.1 73.1 -14.1 73.1
1999-03-18 06:00:00 -14.6 73.3 -14.5 73.2 -14.5 73.2
1999-03-18 12:00:00 -14.8 73.7 -14.8 73.2 -14.8 73.2
1999-03-18 18:00:00 -15.1 74.2 -15.2 73.2 -15.2 73.2
1999-03-19 00:00:00 -15.4 74.4 -15.7 73.0 -15.7 73.0
1999-03-19 06:00:00 -15.8 74.5 -15.8 72.5 -15.8 72.5
1999-03-19 12:00:00 -16.1 74.4 -16.5 72.0 -16.5 72.0
1999-03-19 18:00:00 -17.3 71.4 -17.3 71.4
1999-03-20 00:00:00 -17.9 70.7 -17.9 70.7
1999-03-20 06:00:00 -18.3 70.3 -18.3 70.3
1999-03-20 12:00:00 -18.7 70.0 -18.7 70.0
1999-03-20 18:00:00 -19.2 70.1 -19.2 70.1
1999-03-21 00:00:00 -19.9 70.2 -19.9 70.2

top of pageTrack Data:Intensity

jtwc_sh reunion neumann
Date Wind Pres Wind Pres Wind Pres
1999-03-11 18:00:00 20. 1003. 25. 1003.
1999-03-12 00:00:00 20. 1003. 25. 1003.
1999-03-12 06:00:00 20. 1002. 25. 1002.
1999-03-12 12:00:00 20. 1002. 25. 1002.
1999-03-12 18:00:00 20. 1002. 25. 1002.
1999-03-13 00:00:00 20. 1002. 25. 1002.
1999-03-13 06:00:00 20. 1001. 25. 1001.
1999-03-13 12:00:00 23. 1000. 30. 1000.
1999-03-13 18:00:00 23. 1000. 30. 1000.
1999-03-14 00:00:00 25. 999. 30. 999.
1999-03-14 06:00:00 25. 999. 30. 999.
1999-03-14 12:00:00 25. 999. 30. 999.
1999-03-14 18:00:00 23. 1000. 30. 1000.
1999-03-15 00:00:00 25. 999. 30. 999.
1999-03-15 06:00:00 25. 999. 30. 999.
1999-03-15 12:00:00 25. 25. 999. 30. 999.
1999-03-15 18:00:00 25. 25. 999. 30. 999.
1999-03-16 00:00:00 25. 30. 996. 35. 996.
1999-03-16 06:00:00 25. 30. 996. 35. 996.
1999-03-16 12:00:00 30. 30. 996. 35. 996.
1999-03-16 18:00:00 30. 30. 996. 35. 996.
1999-03-17 00:00:00 35. 30. 995. 40. 995.
1999-03-17 06:00:00 35. 30. 995. 40. 995.
1999-03-17 12:00:00 35. 30. 995. 40. 995.
1999-03-17 18:00:00 35. 30. 995. 40. 995.
jtwc_sh reunion neumann
1999-03-18 00:00:00 35. 30. 995. 40. 995.
1999-03-18 06:00:00 30. 30. 996. 35. 996.
1999-03-18 12:00:00 30. 28. 997. 35. 997.
1999-03-18 18:00:00 30. 25. 999. 30. 999.
1999-03-19 00:00:00 30. 25. 999. 30. 999.
1999-03-19 06:00:00 30. 25. 999. 30. 999.
1999-03-19 12:00:00 30. 25. 999. 30. 999.
1999-03-19 18:00:00 25. 999. 30. 999.
1999-03-20 00:00:00 23. 1000. 30. 1000.
1999-03-20 06:00:00 20. 1002. 25. 1002.
1999-03-20 12:00:00 20. 1002. 25. 1002.
1999-03-20 18:00:00 1003. 25. 1003.
1999-03-21 00:00:00 1004. 20. 1004.

top of page Links to source data

Source Source file Format
jtwc_sh bsh291999.txt ATCF
reunion WMO-Best-Tracks.txt:Line=18562:e39899 WMO (old format)
neumann tracks.sh:Storm=1169:HSK3099:BSH291999:Reunion HURDAT